createdAt,value
2019-04-21T00:01:37.113Z,33.79
2019-04-21T00:04:11.344Z,33.81
2019-04-21T00:06:55.277Z,33.93
2019-04-21T00:11:56.953Z,33.70
2019-04-21T00:14:22.504Z,33.37
2019-04-21T00:16:50.401Z,33.49
2019-04-21T00:19:19.818Z,33.29
2019-04-21T00:21:51.010Z,32.86
2019-04-21T00:24:28.816Z,32.67
2019-04-21T00:27:05.241Z,32.39
2019-04-21T00:29:45.697Z,32.61
2019-04-21T00:32:05.247Z,32.71
2019-04-21T00:34:21.759Z,33.22
2019-04-21T00:37:03.191Z,33.93
2019-04-21T00:39:58.750Z,33.93
2019-04-21T00:42:16.777Z,34.22
2019-04-21T00:44:38.064Z,33.88
2019-04-21T00:47:13.976Z,34.34
2019-04-21T00:49:53.996Z,34.87
2019-04-21T00:52:47.539Z,34.90
2019-04-21T00:55:18.142Z,34.88
2019-04-21T00:57:39.545Z,35.51
2019-04-21T01:00:07.373Z,35.91
2019-04-21T01:02:46.887Z,36.32
2019-04-21T01:05:15.224Z,36.18
2019-04-21T01:07:41.053Z,36.01
2019-04-21T01:10:06.557Z,35.99
2019-04-21T01:12:43.375Z,36.05
2019-04-21T01:15:25.039Z,36.29
2019-04-21T01:17:46.019Z,36.52
2019-04-21T01:20:10.261Z,36.20
2019-04-21T01:22:27.779Z,36.32
2019-04-21T01:25:08.096Z,36.62
2019-04-21T01:27:52.071Z,37.10
2019-04-21T01:30:22.532Z,37.21
2019-04-21T01:32:53.215Z,37.05
2019-04-21T01:35:20.879Z,36.53
2019-04-21T01:37:57.770Z,36.69
2019-04-21T01:40:36.163Z,36.82
2019-04-21T01:42:58.344Z,36.81
2019-04-21T01:45:26.493Z,36.18
2019-04-21T01:48:03.606Z,36.94
2019-04-21T01:50:28.992Z,37.16
2019-04-21T01:53:19.746Z,36.88
2019-04-21T01:55:48.529Z,37.07
2019-04-21T01:58:19.445Z,37.51
2019-04-21T02:00:54.381Z,37.59
2019-04-21T02:03:48.369Z,37.21
2019-04-21T02:06:04.438Z,37.67
2019-04-21T02:08:32.427Z,38.15
2019-04-21T02:11:08.053Z,37.86
2019-04-21T02:13:43.882Z,38.01
2019-04-21T02:16:06.539Z,38.01
2019-04-21T02:18:40.740Z,38.02
2019-04-21T02:20:59.268Z,37.47
2019-04-21T02:24:46.894Z,37.60
2019-04-21T02:27:17.361Z,37.47
2019-04-21T02:29:41.147Z,37.36
2019-04-21T02:32:28.704Z,38.06
2019-04-21T02:35:13.660Z,38.12
2019-04-21T02:42:26.448Z,37.58
2019-04-21T02:45:00.390Z,37.85
2019-04-21T02:50:21.253Z,38.08
2019-04-21T02:52:37.818Z,38.62
2019-04-21T02:55:03.961Z,38.74
2019-04-21T02:57:43.838Z,38.76
2019-04-21T03:05:48.819Z,38.90
2019-04-21T03:08:34.357Z,38.99
2019-04-21T03:10:43.390Z,38.79
2019-04-21T03:13:21.872Z,38.57
2019-04-21T03:20:50.992Z,37.29
2019-04-21T03:23:28.041Z,36.90
2019-04-21T03:25:52.035Z,36.63
2019-04-21T03:36:33.287Z,38.20
2019-04-21T03:38:39.087Z,38.29
2019-04-21T03:40:57.695Z,38.62
2019-04-21T03:45:58.182Z,38.41
2019-04-21T03:48:35.570Z,37.75
2019-04-21T03:51:13.827Z,37.32
2019-04-21T03:53:40.041Z,38.45
2019-04-21T03:56:23.280Z,37.96
2019-04-21T03:58:54.641Z,38.29
2019-04-21T04:04:12.188Z,38.76
2019-04-21T04:06:25.966Z,38.88
2019-04-21T04:09:10.614Z,38.34
2019-04-21T04:11:38.091Z,38.52
2019-04-21T04:16:37.981Z,39.27
2019-04-21T04:21:37.211Z,39.80
2019-04-21T04:27:02.376Z,41.42
2019-04-21T04:29:22.531Z,41.39
2019-04-21T04:34:22.834Z,41.56
2019-04-21T04:42:12.617Z,41.88
2019-04-21T04:44:46.492Z,42.57
2019-04-21T04:47:12.302Z,42.51
2019-04-21T04:57:27.448Z,42.84
2019-04-21T04:59:49.591Z,43.24
2019-04-21T05:02:33.640Z,43.52
2019-04-21T05:09:59.840Z,42.94
2019-04-21T05:12:19.079Z,42.10
2019-04-21T05:14:53.403Z,41.94
2019-04-21T05:17:30.949Z,42.28
2019-04-21T05:24:44.054Z,42.42
2019-04-21T05:27:29.524Z,42.18
2019-04-21T05:30:16.992Z,42.66
2019-04-21T05:32:57.572Z,42.31
2019-04-21T05:35:23.214Z,42.41
2019-04-21T05:38:01.838Z,42.16
2019-04-21T05:40:24.818Z,42.52
2019-04-21T05:43:04.463Z,42.29
2019-04-21T05:45:34.894Z,42.56
2019-04-21T05:48:21.084Z,42.35
2019-04-21T05:50:38.061Z,42.10
2019-04-21T05:53:08.243Z,42.04
2019-04-21T05:58:14.497Z,42.27
2019-04-21T06:03:36.923Z,42.11
2019-04-21T06:06:08.292Z,40.96
2019-04-21T06:08:30.834Z,40.21
2019-04-21T06:11:07.279Z,39.75
2019-04-21T06:13:45.962Z,39.98
2019-04-21T06:16:09.337Z,40.16
2019-04-21T06:21:11.150Z,39.57
2019-04-21T06:23:42.230Z,38.89
2019-04-21T06:26:27.018Z,38.45
2019-04-21T06:28:45.376Z,38.42
2019-04-21T06:31:26.939Z,38.46
2019-04-21T06:51:30.717Z,36.64
2019-04-21T06:56:41.229Z,36.34
2019-04-21T06:59:06.692Z,36.32
2019-04-21T07:01:42.267Z,36.08
2019-04-21T07:04:18.471Z,36.20
2019-04-21T07:06:48.072Z,36.64
2019-04-21T07:11:36.791Z,35.86
2019-04-21T07:14:27.127Z,35.63
2019-04-21T07:16:52.845Z,36.02
2019-04-21T07:19:21.015Z,35.42
2019-04-21T07:22:03.191Z,35.11
2019-04-21T07:24:30.467Z,34.72
2019-04-21T07:29:32.218Z,34.22
2019-04-21T07:31:59.144Z,34.23
2019-04-21T07:34:27.239Z,34.28
2019-04-21T07:36:57.986Z,33.28
2019-04-21T07:39:29.254Z,33.16
2019-04-21T07:41:54.046Z,32.83
2019-04-21T07:44:28.549Z,32.89
2019-04-21T07:46:58.556Z,32.91
2019-04-21T07:49:39.952Z,32.48
2019-04-21T07:52:28.590Z,31.74
2019-04-21T07:55:12.406Z,31.55
2019-04-21T07:57:28.117Z,31.56
2019-04-21T08:00:14.928Z,31.23
2019-04-21T08:02:34.278Z,30.78
2019-04-21T08:05:20.559Z,30.96
2019-04-21T08:07:49.361Z,30.96
2019-04-21T08:10:03.197Z,30.93
2019-04-21T08:12:37.022Z,30.31
2019-04-21T08:15:18.161Z,30.44
2019-04-21T08:17:41.516Z,30.22
2019-04-21T08:20:13.831Z,30.57
2019-04-21T08:30:28.899Z,29.16
2019-04-21T08:37:55.217Z,29.17
2019-04-21T08:40:43.683Z,29.46
2019-04-21T08:43:02.808Z,29.47
2019-04-21T08:45:35.906Z,29.72
2019-04-21T08:48:04.139Z,29.96
2019-04-21T08:50:37.271Z,29.05
2019-04-21T08:53:07.966Z,28.71
2019-04-21T08:55:51.902Z,29.15
2019-04-21T08:58:22.675Z,29.36
2019-04-21T09:01:00.889Z,29.08
2019-04-21T09:03:43.265Z,29.35
2019-04-21T09:06:23.553Z,29.81
2019-04-21T09:08:46.024Z,28.68
2019-04-21T09:11:17.243Z,28.68
2019-04-21T09:13:47.714Z,28.89
2019-04-21T09:16:18.794Z,28.78
2019-04-21T09:18:48.779Z,28.39
2019-04-21T09:21:28.539Z,28.16
2019-04-21T09:24:00.597Z,28.15
2019-04-21T09:26:27.911Z,27.66
2019-04-21T09:28:54.017Z,27.54
2019-04-21T09:31:12.117Z,27.46
2019-04-21T09:33:47.130Z,27.61
2019-04-21T09:36:17.943Z,27.16
2019-04-21T09:38:50.733Z,27.06
2019-04-21T09:41:18.959Z,26.94
2019-04-21T09:43:52.203Z,26.69
2019-04-21T09:46:20.759Z,26.47
2019-04-21T09:48:58.249Z,26.56
2019-04-21T09:51:21.933Z,25.93
2019-04-21T09:53:58.337Z,26.11
2019-04-21T09:56:31.431Z,26.03
2019-04-21T09:59:05.359Z,24.73
2019-04-21T10:01:38.945Z,24.63
2019-04-21T10:04:00.221Z,24.54
2019-04-21T10:06:28.528Z,24.60
2019-04-21T10:09:03.989Z,22.64
2019-04-21T10:11:29.496Z,23.21
2019-04-21T10:13:59.126Z,21.82
2019-04-21T10:16:34.253Z,21.11
2019-04-21T10:19:04.653Z,20.92
2019-04-21T10:21:34.326Z,21.24
2019-04-21T10:24:04.203Z,21.32
2019-04-21T10:26:33.909Z,19.75
2019-04-21T10:29:09.384Z,20.67
2019-04-21T10:31:34.901Z,20.61
2019-04-21T10:34:05.314Z,19.94
2019-04-21T10:36:35.159Z,19.39
2019-04-21T10:39:06.172Z,18.82
2019-04-21T10:41:35.728Z,18.65
2019-04-21T10:44:05.300Z,18.11
2019-04-21T10:46:35.051Z,18.13
2019-04-21T10:49:04.675Z,17.86
2019-04-21T10:51:35.164Z,18.18
2019-04-21T10:54:06.270Z,18.18
2019-04-21T10:56:42.389Z,17.47
2019-04-21T10:59:10.050Z,17.46
2019-04-21T11:01:41.037Z,17.02
2019-04-21T11:04:22.783Z,18.01
2019-04-21T11:06:48.569Z,17.61
2019-04-21T11:09:20.083Z,17.33
2019-04-21T11:11:51.673Z,16.93
2019-04-21T11:14:21.413Z,16.90
2019-04-21T11:16:52.908Z,16.53
2019-04-21T11:19:22.396Z,17.00
2019-04-21T11:21:52.577Z,17.06
2019-04-21T11:24:23.017Z,17.49
2019-04-21T11:26:53.796Z,16.57
2019-04-21T11:29:23.494Z,16.16
2019-04-21T11:31:53.069Z,16.45
2019-04-21T11:34:23.069Z,16.71
2019-04-21T11:36:52.686Z,16.90
2019-04-21T11:39:35.069Z,16.59
2019-04-21T11:41:55.181Z,16.20
2019-04-21T11:44:24.924Z,17.00
2019-04-21T11:46:54.562Z,16.74
2019-04-21T11:49:27.508Z,16.69
2019-04-21T11:51:56.500Z,16.23
2019-04-21T11:54:26.736Z,15.54
2019-04-21T11:56:56.997Z,15.78
2019-04-21T11:59:27.907Z,15.54
2019-04-21T12:01:57.551Z,16.40
2019-04-21T12:04:27.635Z,15.70
2019-04-21T12:06:57.850Z,15.30
2019-04-21T12:09:27.598Z,15.05
2019-04-21T12:11:57.223Z,14.86
2019-04-21T12:14:28.124Z,14.30
2019-04-21T12:16:59.212Z,14.25
2019-04-21T12:19:28.903Z,14.50
2019-04-21T12:22:08.063Z,14.91
2019-04-21T12:24:32.965Z,14.91
2019-04-21T12:27:05.631Z,14.39
2019-04-21T12:29:37.815Z,14.43
2019-04-21T12:32:18.014Z,14.54
2019-04-21T12:34:50.507Z,14.81
2019-04-21T12:37:19.237Z,14.42
2019-04-21T12:39:50.472Z,14.36
2019-04-21T12:42:20.778Z,14.26
2019-04-21T12:44:51.640Z,14.45
2019-04-21T12:47:21.771Z,13.76
2019-04-21T12:49:54.041Z,14.06
2019-04-21T12:52:24.035Z,14.27
2019-04-21T12:54:53.605Z,14.43
2019-04-21T12:57:23.652Z,14.66
2019-04-21T12:59:53.204Z,14.60
2019-04-21T13:02:25.423Z,13.69
2019-04-21T13:04:55.871Z,13.74
2019-04-21T13:07:25.840Z,13.67
2019-04-21T13:09:55.451Z,13.51
2019-04-21T13:12:25.194Z,13.48
2019-04-21T13:14:57.411Z,12.76
2019-04-21T13:17:26.101Z,13.38
2019-04-21T13:19:56.906Z,13.52
2019-04-21T13:22:27.883Z,13.24
2019-04-21T13:24:57.993Z,12.90
2019-04-21T13:27:28.852Z,12.51
2019-04-21T13:29:59.971Z,12.40
2019-04-21T13:32:31.077Z,12.44
2019-04-21T13:35:01.206Z,12.51
2019-04-21T13:37:30.861Z,12.15
2019-04-21T13:40:24.913Z,11.99
2019-04-21T13:42:40.258Z,11.09
2019-04-21T13:45:08.214Z,11.29
2019-04-21T13:47:38.686Z,10.93
2019-04-21T13:50:09.382Z,10.94
2019-04-21T13:52:38.963Z,10.58
2019-04-21T13:55:11.823Z,8.00
2019-04-21T13:57:41.377Z,5.59
2019-04-21T14:00:13.072Z,5.12
2019-04-21T14:02:42.868Z,4.06
2019-04-21T14:05:15.500Z,3.63
2019-04-21T14:07:44.313Z,3.30
2019-04-21T14:10:16.082Z,3.28
2019-04-21T14:12:46.774Z,2.76
2019-04-21T14:15:18.090Z,2.65
2019-04-21T14:17:48.918Z,2.07
2019-04-21T14:20:19.515Z,1.83
2019-04-21T14:22:49.693Z,1.81
2019-04-21T14:25:19.701Z,2.37
2019-04-21T14:27:51.675Z,2.02
2019-04-21T14:30:22.737Z,1.99
2019-04-21T14:32:52.322Z,1.30
2019-04-21T14:35:22.896Z,1.46
2019-04-21T14:37:52.946Z,1.59
2019-04-21T14:40:27.270Z,1.61
2019-04-21T14:42:54.115Z,1.48
2019-04-21T14:45:28.263Z,1.15
2019-04-21T14:48:00.856Z,1.88
2019-04-21T14:50:42.158Z,1.19
2019-04-21T14:53:16.258Z,0.93
2019-04-21T14:55:46.398Z,0.90
2019-04-21T14:58:17.224Z,1.22
2019-04-21T15:01:04.160Z,1.71
2019-04-21T15:03:34.198Z,1.73
2019-04-21T15:06:05.422Z,1.52
2019-04-21T15:08:35.402Z,1.71
2019-04-21T15:11:05.348Z,1.64
2019-04-21T15:13:35.490Z,1.37
2019-04-21T15:16:06.763Z,1.31
2019-04-21T15:18:36.834Z,1.13
2019-04-21T15:21:07.798Z,1.52
2019-04-21T15:23:38.198Z,0.98
2019-04-21T15:26:08.271Z,1.58
2019-04-21T15:28:40.519Z,1.11
2019-04-21T15:31:15.173Z,1.30
2019-04-21T15:33:41.368Z,1.52
2019-04-21T15:36:11.282Z,1.10
2019-04-21T15:38:40.910Z,1.39
2019-04-21T15:41:10.963Z,1.10
2019-04-21T15:43:42.608Z,1.06
2019-04-21T15:46:13.157Z,1.17
2019-04-21T15:48:44.786Z,0.89
2019-04-21T15:51:15.829Z,0.77
2019-04-21T15:53:47.879Z,1.12
2019-04-21T15:56:20.579Z,0.99
2019-04-21T15:58:52.671Z,1.08
2019-04-21T16:01:36.609Z,2.00
2019-04-21T16:04:07.886Z,3.64
2019-04-21T16:06:39.384Z,4.79
2019-04-21T16:09:16.176Z,5.56
2019-04-21T16:11:42.141Z,6.27
2019-04-21T16:14:11.836Z,6.79
2019-04-21T16:16:41.400Z,7.19
2019-04-21T16:19:12.330Z,8.15
2019-04-21T16:21:44.394Z,7.81
2019-04-21T16:24:14.247Z,8.26
2019-04-21T16:26:44.602Z,8.53
2019-04-21T16:29:15.340Z,8.66
2019-04-21T16:31:45.132Z,9.30
2019-04-21T16:34:15.787Z,9.65
2019-04-21T16:36:45.699Z,9.96
2019-04-21T16:39:15.652Z,10.10
2019-04-21T16:41:46.505Z,10.35
2019-04-21T16:44:16.837Z,10.63
2019-04-21T16:46:47.507Z,10.68
2019-04-21T16:49:17.862Z,11.13
2019-04-21T16:51:50.021Z,11.11
2019-04-21T16:54:21.987Z,11.63
2019-04-21T16:56:55.787Z,11.66
2019-04-21T16:59:28.577Z,11.57
2019-04-21T17:01:58.777Z,11.97
2019-04-21T17:04:28.721Z,12.47
2019-04-21T17:06:58.916Z,12.57
2019-04-21T17:09:28.771Z,12.71
2019-04-21T17:12:03.372Z,13.14
2019-04-21T17:14:47.734Z,13.14
2019-04-21T17:17:29.279Z,13.30
2019-04-21T17:19:38.153Z,13.64
2019-04-21T17:22:03.975Z,13.98
2019-04-21T17:24:34.713Z,14.25
2019-04-21T17:27:05.058Z,14.26
2019-04-21T17:29:34.768Z,14.29
2019-04-21T17:32:07.696Z,14.54
2019-04-21T17:34:37.400Z,14.73
2019-04-21T17:37:08.720Z,14.89
2019-04-21T17:39:38.751Z,15.29
2019-04-21T17:42:19.738Z,15.11
2019-04-21T17:44:39.764Z,15.31
2019-04-21T17:47:20.102Z,15.76
2019-04-21T17:49:41.097Z,15.49
2019-04-21T17:52:23.141Z,15.57
2019-04-21T17:55:09.245Z,15.96
2019-04-21T17:57:52.077Z,16.19
2019-04-21T18:00:43.394Z,16.28
2019-04-21T18:02:54.765Z,16.28
2019-04-21T18:05:27.512Z,16.44
2019-04-21T18:07:58.629Z,16.79
2019-04-21T18:10:33.485Z,16.65
2019-04-21T18:12:52.114Z,16.66
2019-04-21T18:15:36.362Z,16.99
2019-04-21T18:17:47.865Z,17.21
2019-04-21T18:20:19.664Z,17.53
2019-04-21T18:22:59.062Z,17.41
2019-04-21T18:25:42.285Z,17.69
2019-04-21T18:28:02.970Z,17.61
2019-04-21T18:30:54.223Z,18.05
2019-04-21T18:33:29.970Z,18.08
2019-04-21T18:36:02.889Z,18.15
2019-04-21T18:39:10.371Z,18.08
2019-04-21T18:41:28.716Z,18.07
2019-04-21T18:44:21.337Z,18.23
2019-04-21T18:46:55.133Z,18.45
2019-04-21T18:49:19.447Z,18.73
2019-04-21T18:52:20.779Z,18.85
2019-04-21T18:54:59.906Z,19.23
2019-04-21T18:57:26.468Z,19.12
2019-04-21T18:59:47.715Z,19.34
2019-04-21T19:02:20.746Z,19.97
2019-04-21T19:04:50.170Z,20.08
2019-04-21T19:07:37.867Z,20.72
2019-04-21T19:10:22.247Z,21.21
2019-04-21T19:13:17.456Z,21.38
2019-04-21T19:15:04.388Z,21.87
2019-04-21T19:18:14.901Z,21.71
2019-04-21T19:20:22.309Z,22.19
2019-04-21T19:22:47.496Z,22.46
2019-04-21T19:25:34.928Z,22.54
2019-04-21T19:27:49.040Z,22.90
2019-04-21T19:30:33.216Z,22.81
2019-04-21T19:32:51.079Z,22.97
2019-04-21T19:35:11.668Z,23.33
2019-04-21T19:37:49.757Z,23.52
2019-04-21T19:40:31.700Z,23.61
2019-04-21T19:42:55.781Z,23.67
2019-04-21T19:45:33.155Z,23.51
2019-04-21T19:48:08.057Z,23.86
2019-04-21T19:50:43.946Z,23.92
2019-04-21T19:53:00.917Z,23.97
2019-04-21T19:55:22.257Z,23.93
2019-04-21T19:57:52.717Z,24.49
2019-04-21T20:00:22.602Z,25.20
2019-04-21T20:02:54.232Z,25.14
2019-04-21T20:05:34.975Z,24.81
2019-04-21T20:08:11.399Z,25.03
2019-04-21T20:10:51.834Z,24.83
2019-04-21T20:13:25.953Z,24.92
2019-04-21T20:15:51.028Z,24.95
2019-04-21T20:18:15.305Z,25.07
2019-04-21T20:20:35.144Z,25.21
2019-04-21T20:23:08.899Z,25.25
2019-04-21T20:25:43.701Z,25.30
2019-04-21T20:28:15.681Z,25.34
2019-04-21T20:30:59.595Z,25.61
2019-04-21T20:36:08.156Z,25.60
2019-04-21T20:38:24.477Z,25.84
2019-04-21T20:40:56.934Z,25.75
2019-04-21T20:43:38.131Z,26.08
2019-04-21T20:46:06.114Z,26.05
2019-04-21T20:48:34.420Z,26.13
2019-04-21T20:51:09.239Z,26.23
2019-04-21T20:53:34.257Z,26.44
2019-04-21T20:56:02.366Z,26.46
2019-04-21T20:58:40.771Z,26.62
2019-04-21T21:01:25.745Z,26.62
2019-04-21T21:03:46.034Z,26.81
2019-04-21T21:06:09.951Z,26.63
2019-04-21T21:08:52.946Z,26.83
2019-04-21T21:11:22.007Z,26.90
2019-04-21T21:13:53.688Z,26.88
2019-04-21T21:19:08.101Z,26.75
2019-04-21T21:21:20.619Z,27.06
2019-04-21T21:23:56.303Z,26.84
2019-04-21T21:26:43.863Z,26.81
2019-04-21T21:28:52.009Z,27.03
2019-04-21T21:31:30.800Z,26.98
2019-04-21T21:34:11.811Z,27.10
2019-04-21T21:36:31.844Z,26.97
2019-04-21T21:39:10.057Z,27.15
2019-04-21T21:41:26.561Z,27.02
2019-04-21T21:44:00.551Z,27.16
2019-04-21T21:46:36.874Z,27.08
2019-04-21T21:49:01.931Z,27.10
2019-04-21T21:51:42.254Z,27.14
2019-04-21T21:53:54.897Z,27.24
2019-04-21T21:56:26.814Z,27.12
2019-04-21T21:58:57.131Z,27.04
2019-04-21T22:01:31.864Z,27.50
2019-04-21T22:04:08.809Z,27.68
2019-04-21T22:06:39.654Z,27.88
2019-04-21T22:09:00.981Z,28.08
2019-04-21T22:11:32.091Z,28.10
2019-04-21T22:14:06.244Z,28.02
2019-04-21T22:16:46.610Z,27.93
2019-04-21T22:19:21.879Z,28.31
2019-04-21T22:21:53.620Z,28.31
2019-04-21T22:24:21.610Z,28.29
2019-04-21T22:26:39.029Z,28.46
2019-04-21T22:29:09.697Z,28.56
2019-04-21T22:31:41.583Z,28.66
2019-04-21T22:34:13.171Z,28.89
2019-04-21T22:36:48.737Z,28.75
2019-04-21T22:39:38.405Z,28.60
2019-04-21T22:41:48.425Z,28.61
2019-04-21T22:44:20.705Z,28.87
2019-04-21T22:47:00.035Z,29.20
2019-04-21T22:49:23.593Z,29.12
2019-04-21T22:51:53.965Z,28.94
2019-04-21T22:54:32.626Z,28.81
2019-04-21T22:57:05.174Z,29.01
2019-04-21T22:59:30.554Z,29.10
2019-04-21T23:02:01.508Z,29.18
2019-04-21T23:04:35.572Z,29.25
2019-04-21T23:07:07.854Z,29.81
2019-04-21T23:09:35.004Z,29.74
2019-04-21T23:12:05.082Z,29.62
2019-04-21T23:14:46.746Z,29.85
2019-04-21T23:17:29.902Z,29.86
2019-04-21T23:19:59.916Z,29.63
2019-04-21T23:22:27.607Z,29.68
2019-04-21T23:25:03.709Z,31.02
2019-04-21T23:27:23.837Z,30.91
2019-04-21T23:30:08.119Z,30.00
2019-04-21T23:32:27.842Z,29.71
2019-04-21T23:34:47.079Z,30.24
2019-04-21T23:37:21.714Z,29.97
2019-04-21T23:39:52.214Z,29.81
2019-04-21T23:42:28.622Z,29.80
2019-04-21T23:44:55.203Z,29.93
2019-04-21T23:47:34.552Z,30.21
2019-04-21T23:50:02.715Z,30.48
2019-04-21T23:52:25.606Z,30.61
2019-04-21T23:54:55.680Z,30.86
2019-04-21T23:57:32.566Z,30.87
2019-04-21T23:59:58.849Z,30.81
